sensor_id;sensor_type;location;lat;lon;timestamp;temperature;humidity
30250;DHT22;17064;47.974;13.826;2023-02-11T00:01:28;-3.80;99.90
30250;DHT22;17064;47.974;13.826;2023-02-11T00:06:31;-3.80;99.90
30250;DHT22;17064;47.974;13.826;2023-02-11T00:11:32;-3.80;99.90
30250;DHT22;17064;47.974;13.826;2023-02-11T00:16:33;-3.90;99.90
30250;DHT22;17064;47.974;13.826;2023-02-11T00:21:34;-3.80;99.90
30250;DHT22;17064;47.974;13.826;2023-02-11T00:26:35;-3.80;99.90
30250;DHT22;17064;47.974;13.826;2023-02-11T00:31:36;-3.80;99.90
30250;DHT22;17064;47.974;13.826;2023-02-11T00:36:36;-3.80;99.90
30250;DHT22;17064;47.974;13.826;2023-02-11T00:41:37;-3.80;99.90
30250;DHT22;17064;47.974;13.826;2023-02-11T00:46:38;-3.90;99.90
30250;DHT22;17064;47.974;13.826;2023-02-11T00:51:39;-3.80;99.90
30250;DHT22;17064;47.974;13.826;2023-02-11T00:56:39;-3.70;99.90
30250;DHT22;17064;47.974;13.826;2023-02-11T01:01:40;-3.60;99.90
30250;DHT22;17064;47.974;13.826;2023-02-11T01:06:41;-3.60;99.90
30250;DHT22;17064;47.974;13.826;2023-02-11T01:11:41;-3.70;99.90
30250;DHT22;17064;47.974;13.826;2023-02-11T01:16:42;-3.80;99.90
30250;DHT22;17064;47.974;13.826;2023-02-11T01:21:43;-3.80;99.90
30250;DHT22;17064;47.974;13.826;2023-02-11T01:26:44;-3.80;99.90
30250;DHT22;17064;47.974;13.826;2023-02-11T01:31:44;-3.90;99.90
30250;DHT22;17064;47.974;13.826;2023-02-11T01:36:45;-4.00;99.90
30250;DHT22;17064;47.974;13.826;2023-02-11T01:41:46;-4.10;99.90
30250;DHT22;17064;47.974;13.826;2023-02-11T01:46:47;-4.10;99.90
30250;DHT22;17064;47.974;13.826;2023-02-11T01:52:14;-4.10;99.90
30250;DHT22;17064;47.974;13.826;2023-02-11T01:57:15;-4.00;99.90
30250;DHT22;17064;47.974;13.826;2023-02-11T02:13:00;-3.90;99.90
30250;DHT22;17064;47.974;13.826;2023-02-11T02:18:22;-3.90;99.90
30250;DHT22;17064;47.974;13.826;2023-02-11T02:34:05;-4.00;99.90
30250;DHT22;17064;47.974;13.826;2023-02-11T02:39:28;-3.90;99.90
30250;DHT22;17064;47.974;13.826;2023-02-11T02:44:31;-3.90;99.90
30250;DHT22;17064;47.974;13.826;2023-02-11T02:49:33;-3.80;99.90
30250;DHT22;17064;47.974;13.826;2023-02-11T03:10:35;-3.50;99.90
30250;DHT22;17064;47.974;13.826;2023-02-11T03:15:39;-3.50;99.90
30250;DHT22;17064;47.974;13.826;2023-02-11T03:20:43;-3.40;99.90
30250;DHT22;17064;47.974;13.826;2023-02-11T03:25:49;-3.30;99.90
30250;DHT22;17064;47.974;13.826;2023-02-11T03:36:08;-3.20;99.90
30250;DHT22;17064;47.974;13.826;2023-02-11T03:41:12;-3.10;99.90
30250;DHT22;17064;47.974;13.826;2023-02-11T03:46:18;-3.00;99.90
30250;DHT22;17064;47.974;13.826;2023-02-11T03:51:21;-2.90;99.90
30250;DHT22;17064;47.974;13.826;2023-02-11T03:56:26;-2.90;99.90
30250;DHT22;17064;47.974;13.826;2023-02-11T04:01:28;-2.90;99.90
30250;DHT22;17064;47.974;13.826;2023-02-11T04:06:29;-2.90;99.90
30250;DHT22;17064;47.974;13.826;2023-02-11T04:11:30;-3.00;99.90
30250;DHT22;17064;47.974;13.826;2023-02-11T04:16:31;-3.00;99.90
30250;DHT22;17064;47.974;13.826;2023-02-11T04:21:31;-3.00;99.90
30250;DHT22;17064;47.974;13.826;2023-02-11T04:26:32;-3.00;99.90
30250;DHT22;17064;47.974;13.826;2023-02-11T04:31:33;-3.00;99.90
30250;DHT22;17064;47.974;13.826;2023-02-11T04:36:33;-3.10;99.90
30250;DHT22;17064;47.974;13.826;2023-02-11T04:41:34;-3.20;99.90
30250;DHT22;17064;47.974;13.826;2023-02-11T04:46:35;-3.30;99.90
30250;DHT22;17064;47.974;13.826;2023-02-11T04:51:36;-3.40;99.90
30250;DHT22;17064;47.974;13.826;2023-02-11T04:56:36;-3.50;99.90
30250;DHT22;17064;47.974;13.826;2023-02-11T05:01:38;-3.60;99.90
30250;DHT22;17064;47.974;13.826;2023-02-11T05:06:38;-3.70;99.90
30250;DHT22;17064;47.974;13.826;2023-02-11T05:11:39;-3.70;99.90
30250;DHT22;17064;47.974;13.826;2023-02-11T05:16:40;-3.60;99.90
30250;DHT22;17064;47.974;13.826;2023-02-11T05:21:41;-3.40;99.90
30250;DHT22;17064;47.974;13.826;2023-02-11T05:26:41;-3.40;99.90
30250;DHT22;17064;47.974;13.826;2023-02-11T05:31:42;-3.40;99.90
30250;DHT22;17064;47.974;13.826;2023-02-11T05:36:43;-3.40;99.90
30250;DHT22;17064;47.974;13.826;2023-02-11T05:41:44;-3.30;99.90
30250;DHT22;17064;47.974;13.826;2023-02-11T05:46:44;-3.20;99.90
30250;DHT22;17064;47.974;13.826;2023-02-11T05:51:45;-3.10;99.90
30250;DHT22;17064;47.974;13.826;2023-02-11T05:56:46;-3.10;99.90
30250;DHT22;17064;47.974;13.826;2023-02-11T06:01:47;-3.10;99.90
30250;DHT22;17064;47.974;13.826;2023-02-11T06:06:48;-3.10;99.90
30250;DHT22;17064;47.974;13.826;2023-02-11T06:11:48;-3.10;99.90
30250;DHT22;17064;47.974;13.826;2023-02-11T06:16:49;-3.00;99.90
30250;DHT22;17064;47.974;13.826;2023-02-11T06:21:50;-2.90;99.90
30250;DHT22;17064;47.974;13.826;2023-02-11T06:26:51;-2.90;99.90
30250;DHT22;17064;47.974;13.826;2023-02-11T06:31:51;-2.90;99.90
30250;DHT22;17064;47.974;13.826;2023-02-11T06:36:52;-2.70;99.90
30250;DHT22;17064;47.974;13.826;2023-02-11T06:41:53;-2.60;99.90
30250;DHT22;17064;47.974;13.826;2023-02-11T06:46:54;-2.50;99.90
30250;DHT22;17064;47.974;13.826;2023-02-11T06:51:55;-2.40;99.90
30250;DHT22;17064;47.974;13.826;2023-02-11T06:56:55;-2.40;99.90
30250;DHT22;17064;47.974;13.826;2023-02-11T07:01:56;-2.30;99.90
30250;DHT22;17064;47.974;13.826;2023-02-11T07:06:57;-2.20;99.90
30250;DHT22;17064;47.974;13.826;2023-02-11T07:11:57;-2.00;99.90
30250;DHT22;17064;47.974;13.826;2023-02-11T07:16:58;-1.90;99.90
30250;DHT22;17064;47.974;13.826;2023-02-11T07:21:59;-1.80;99.90
30250;DHT22;17064;47.974;13.826;2023-02-11T07:27:00;-1.60;99.90
30250;DHT22;17064;47.974;13.826;2023-02-11T07:32:00;-1.50;99.90
30250;DHT22;17064;47.974;13.826;2023-02-11T07:37:01;-1.30;99.90
30250;DHT22;17064;47.974;13.826;2023-02-11T07:42:02;-1.10;99.90
30250;DHT22;17064;47.974;13.826;2023-02-11T07:47:03;-0.90;99.90
30250;DHT22;17064;47.974;13.826;2023-02-11T07:52:04;-0.70;99.90
30250;DHT22;17064;47.974;13.826;2023-02-11T07:57:05;-0.60;99.90
30250;DHT22;17064;47.974;13.826;2023-02-11T08:02:06;-0.50;99.90
30250;DHT22;17064;47.974;13.826;2023-02-11T08:07:06;-0.30;99.90
30250;DHT22;17064;47.974;13.826;2023-02-11T08:12:07;-0.20;99.90
30250;DHT22;17064;47.974;13.826;2023-02-11T08:17:08;-0.10;99.90
30250;DHT22;17064;47.974;13.826;2023-02-11T08:22:08;0.10;99.90
30250;DHT22;17064;47.974;13.826;2023-02-11T08:27:09;0.30;99.90
30250;DHT22;17064;47.974;13.826;2023-02-11T08:32:10;0.40;99.90
30250;DHT22;17064;47.974;13.826;2023-02-11T08:37:11;0.50;99.90
30250;DHT22;17064;47.974;13.826;2023-02-11T08:42:12;0.70;99.90
30250;DHT22;17064;47.974;13.826;2023-02-11T08:47:14;1.20;99.90
30250;DHT22;17064;47.974;13.826;2023-02-11T08:52:15;1.70;99.90
30250;DHT22;17064;47.974;13.826;2023-02-11T08:57:16;2.00;99.90
30250;DHT22;17064;47.974;13.826;2023-02-11T09:02:17;2.10;99.90
30250;DHT22;17064;47.974;13.826;2023-02-11T09:07:17;2.30;99.90
30250;DHT22;17064;47.974;13.826;2023-02-11T09:12:18;2.40;99.90
30250;DHT22;17064;47.974;13.826;2023-02-11T09:17:18;2.50;99.90
30250;DHT22;17064;47.974;13.826;2023-02-11T09:22:19;2.70;99.90
30250;DHT22;17064;47.974;13.826;2023-02-11T09:27:20;2.90;99.90
30250;DHT22;17064;47.974;13.826;2023-02-11T09:32:21;3.10;99.90
30250;DHT22;17064;47.974;13.826;2023-02-11T09:37:21;3.30;99.90
30250;DHT22;17064;47.974;13.826;2023-02-11T09:47:48;3.60;99.90
30250;DHT22;17064;47.974;13.826;2023-02-11T09:53:00;3.40;99.90
30250;DHT22;17064;47.974;13.826;2023-02-11T09:58:04;3.30;99.90
30250;DHT22;17064;47.974;13.826;2023-02-11T10:23:53;3.90;98.20
30250;DHT22;17064;47.974;13.826;2023-02-11T10:28:55;3.90;98.20
30250;DHT22;17064;47.974;13.826;2023-02-11T10:44:26;3.80;97.60
30250;DHT22;17064;47.974;13.826;2023-02-11T10:54:34;3.80;97.30
30250;DHT22;17064;47.974;13.826;2023-02-11T10:59:37;4.00;97.00
30250;DHT22;17064;47.974;13.826;2023-02-11T11:04:42;4.20;96.00
30250;DHT22;17064;47.974;13.826;2023-02-11T11:09:48;4.40;93.50
30250;DHT22;17064;47.974;13.826;2023-02-11T11:15:14;4.50;92.10
30250;DHT22;17064;47.974;13.826;2023-02-11T11:20:29;4.60;90.60
30250;DHT22;17064;47.974;13.826;2023-02-11T11:25:37;4.70;88.10
30250;DHT22;17064;47.974;13.826;2023-02-11T11:30:41;4.70;90.60
30250;DHT22;17064;47.974;13.826;2023-02-11T11:35:42;4.80;84.30
30250;DHT22;17064;47.974;13.826;2023-02-11T11:40:43;4.80;85.50
30250;DHT22;17064;47.974;13.826;2023-02-11T11:45:58;4.90;82.90
30250;DHT22;17064;47.974;13.826;2023-02-11T11:51:03;4.80;77.70
30250;DHT22;17064;47.974;13.826;2023-02-11T11:56:05;4.70;77.40
30250;DHT22;17064;47.974;13.826;2023-02-11T12:28:04;4.90;71.60
30250;DHT22;17064;47.974;13.826;2023-02-11T12:43:45;5.10;72.50
30250;DHT22;17064;47.974;13.826;2023-02-11T12:48:59;5.10;72.20
30250;DHT22;17064;47.974;13.826;2023-02-11T12:54:23;5.00;71.00
30250;DHT22;17064;47.974;13.826;2023-02-11T13:04:37;5.00;69.30
30250;DHT22;17064;47.974;13.826;2023-02-11T13:09:47;5.00;68.50
30250;DHT22;17064;47.974;13.826;2023-02-11T13:14:53;5.10;68.10
30250;DHT22;17064;47.974;13.826;2023-02-11T13:20:13;5.10;67.60
30250;DHT22;17064;47.974;13.826;2023-02-11T13:30:33;5.20;67.80
30250;DHT22;17064;47.974;13.826;2023-02-11T13:35:37;5.20;66.50
30250;DHT22;17064;47.974;13.826;2023-02-11T13:40:39;5.30;66.20
30250;DHT22;17064;47.974;13.826;2023-02-11T13:45:48;5.30;66.40
30250;DHT22;17064;47.974;13.826;2023-02-11T13:51:09;5.30;67.40
30250;DHT22;17064;47.974;13.826;2023-02-11T14:07:40;5.40;66.40
30250;DHT22;17064;47.974;13.826;2023-02-11T14:13:23;5.40;66.60
30250;DHT22;17064;47.974;13.826;2023-02-11T14:23:45;5.20;67.50
30250;DHT22;17064;47.974;13.826;2023-02-11T14:28:59;5.20;66.90
30250;DHT22;17064;47.974;13.826;2023-02-11T14:34:38;5.20;67.10
30250;DHT22;17064;47.974;13.826;2023-02-11T14:40:01;5.20;65.70
30250;DHT22;17064;47.974;13.826;2023-02-11T14:45:07;5.20;66.00
30250;DHT22;17064;47.974;13.826;2023-02-11T14:50:31;5.10;65.60
30250;DHT22;17064;47.974;13.826;2023-02-11T14:55:36;5.10;64.60
30250;DHT22;17064;47.974;13.826;2023-02-11T15:00:59;5.10;64.00
30250;DHT22;17064;47.974;13.826;2023-02-11T15:06:20;5.00;65.00
30250;DHT22;17064;47.974;13.826;2023-02-11T15:11:24;5.00;65.80
30250;DHT22;17064;47.974;13.826;2023-02-11T15:16:28;5.00;64.50
30250;DHT22;17064;47.974;13.826;2023-02-11T15:21:31;5.00;65.30
30250;DHT22;17064;47.974;13.826;2023-02-11T15:26:32;5.00;64.30
30250;DHT22;17064;47.974;13.826;2023-02-11T15:31:33;5.10;63.60
30250;DHT22;17064;47.974;13.826;2023-02-11T15:36:34;5.20;64.10
30250;DHT22;17064;47.974;13.826;2023-02-11T15:41:37;5.30;62.00
30250;DHT22;17064;47.974;13.826;2023-02-11T15:46:38;5.30;62.40
30250;DHT22;17064;47.974;13.826;2023-02-11T15:51:44;5.20;65.50
30250;DHT22;17064;47.974;13.826;2023-02-11T15:56:49;5.10;66.70
30250;DHT22;17064;47.974;13.826;2023-02-11T16:01:51;4.90;69.40
30250;DHT22;17064;47.974;13.826;2023-02-11T16:06:54;4.70;71.20
30250;DHT22;17064;47.974;13.826;2023-02-11T16:11:58;4.60;71.80
30250;DHT22;17064;47.974;13.826;2023-02-11T16:17:06;4.40;73.70
30250;DHT22;17064;47.974;13.826;2023-02-11T16:22:14;4.20;74.80
30250;DHT22;17064;47.974;13.826;2023-02-11T16:27:24;4.10;75.80
30250;DHT22;17064;47.974;13.826;2023-02-11T16:32:28;4.00;76.10
30250;DHT22;17064;47.974;13.826;2023-02-11T16:37:30;3.90;74.70
30250;DHT22;17064;47.974;13.826;2023-02-11T16:42:32;3.80;75.50
30250;DHT22;17064;47.974;13.826;2023-02-11T16:47:34;3.80;76.10
30250;DHT22;17064;47.974;13.826;2023-02-11T16:52:36;3.70;76.40
30250;DHT22;17064;47.974;13.826;2023-02-11T16:57:38;3.70;75.60
30250;DHT22;17064;47.974;13.826;2023-02-11T17:02:39;3.60;75.40
30250;DHT22;17064;47.974;13.826;2023-02-11T17:07:40;3.60;74.60
30250;DHT22;17064;47.974;13.826;2023-02-11T17:12:41;3.70;73.20
30250;DHT22;17064;47.974;13.826;2023-02-11T17:17:42;3.70;72.20
30250;DHT22;17064;47.974;13.826;2023-02-11T17:22:43;3.70;72.80
30250;DHT22;17064;47.974;13.826;2023-02-11T17:27:45;3.70;72.50
30250;DHT22;17064;47.974;13.826;2023-02-11T17:32:45;3.70;72.80
30250;DHT22;17064;47.974;13.826;2023-02-11T17:37:47;3.70;72.20
30250;DHT22;17064;47.974;13.826;2023-02-11T17:42:49;3.60;72.00
30250;DHT22;17064;47.974;13.826;2023-02-11T17:47:51;3.60;71.70
30250;DHT22;17064;47.974;13.826;2023-02-11T17:52:52;3.50;71.40
30250;DHT22;17064;47.974;13.826;2023-02-11T17:57:56;3.50;71.20
30250;DHT22;17064;47.974;13.826;2023-02-11T18:02:58;3.50;71.10
30250;DHT22;17064;47.974;13.826;2023-02-11T18:08:07;3.60;71.70
30250;DHT22;17064;47.974;13.826;2023-02-11T18:13:08;3.50;71.30
30250;DHT22;17064;47.974;13.826;2023-02-11T18:18:11;3.60;70.70
30250;DHT22;17064;47.974;13.826;2023-02-11T18:23:12;3.60;70.40
30250;DHT22;17064;47.974;13.826;2023-02-11T18:28:13;3.70;69.70
30250;DHT22;17064;47.974;13.826;2023-02-11T18:33:14;3.80;69.90
30250;DHT22;17064;47.974;13.826;2023-02-11T18:38:15;3.80;70.30
30250;DHT22;17064;47.974;13.826;2023-02-11T18:43:17;3.80;70.20
30250;DHT22;17064;47.974;13.826;2023-02-11T18:48:18;3.80;71.50
30250;DHT22;17064;47.974;13.826;2023-02-11T18:53:20;3.80;70.90
30250;DHT22;17064;47.974;13.826;2023-02-11T18:58:22;3.80;71.20
30250;DHT22;17064;47.974;13.826;2023-02-11T19:03:24;3.90;71.10
30250;DHT22;17064;47.974;13.826;2023-02-11T19:08:26;3.90;72.00
30250;DHT22;17064;47.974;13.826;2023-02-11T19:13:28;3.90;73.00
30250;DHT22;17064;47.974;13.826;2023-02-11T19:18:29;3.90;73.30
30250;DHT22;17064;47.974;13.826;2023-02-11T19:23:33;3.80;73.80
30250;DHT22;17064;47.974;13.826;2023-02-11T19:28:34;3.80;73.70
30250;DHT22;17064;47.974;13.826;2023-02-11T19:33:36;3.80;73.80
30250;DHT22;17064;47.974;13.826;2023-02-11T19:38:39;3.80;73.50
30250;DHT22;17064;47.974;13.826;2023-02-11T19:43:40;3.90;73.20
30250;DHT22;17064;47.974;13.826;2023-02-11T19:48:41;3.90;72.90
30250;DHT22;17064;47.974;13.826;2023-02-11T19:53:43;3.90;73.60
30250;DHT22;17064;47.974;13.826;2023-02-11T19:58:46;4.00;73.60
30250;DHT22;17064;47.974;13.826;2023-02-11T20:03:48;4.10;73.90
30250;DHT22;17064;47.974;13.826;2023-02-11T20:08:58;4.00;73.80
30250;DHT22;17064;47.974;13.826;2023-02-11T20:13:59;4.10;73.30
30250;DHT22;17064;47.974;13.826;2023-02-11T20:19:01;4.20;73.70
30250;DHT22;17064;47.974;13.826;2023-02-11T20:24:03;4.20;74.20
30250;DHT22;17064;47.974;13.826;2023-02-11T20:29:04;4.20;75.10
30250;DHT22;17064;47.974;13.826;2023-02-11T20:34:06;4.10;75.80
30250;DHT22;17064;47.974;13.826;2023-02-11T20:39:09;4.10;75.70
30250;DHT22;17064;47.974;13.826;2023-02-11T20:44:16;4.10;75.80
30250;DHT22;17064;47.974;13.826;2023-02-11T20:49:20;4.10;76.10
30250;DHT22;17064;47.974;13.826;2023-02-11T20:54:22;4.10;76.50
30250;DHT22;17064;47.974;13.826;2023-02-11T20:59:24;4.00;77.00
30250;DHT22;17064;47.974;13.826;2023-02-11T21:04:28;4.00;77.10
30250;DHT22;17064;47.974;13.826;2023-02-11T21:09:33;4.00;78.20
30250;DHT22;17064;47.974;13.826;2023-02-11T21:14:34;4.00;79.00
30250;DHT22;17064;47.974;13.826;2023-02-11T21:19:35;3.90;80.00
30250;DHT22;17064;47.974;13.826;2023-02-11T21:24:37;4.00;80.30
30250;DHT22;17064;47.974;13.826;2023-02-11T21:29:38;3.90;80.50
30250;DHT22;17064;47.974;13.826;2023-02-11T21:34:39;4.00;80.90
30250;DHT22;17064;47.974;13.826;2023-02-11T21:39:40;4.00;81.60
30250;DHT22;17064;47.974;13.826;2023-02-11T21:44:43;4.10;81.60
30250;DHT22;17064;47.974;13.826;2023-02-11T21:49:44;4.20;82.00
30250;DHT22;17064;47.974;13.826;2023-02-11T21:54:48;4.30;81.70
30250;DHT22;17064;47.974;13.826;2023-02-11T21:59:49;4.40;81.30
30250;DHT22;17064;47.974;13.826;2023-02-11T22:04:51;4.30;82.10
30250;DHT22;17064;47.974;13.826;2023-02-11T22:09:52;4.20;83.20
30250;DHT22;17064;47.974;13.826;2023-02-11T22:14:54;4.10;84.00
30250;DHT22;17064;47.974;13.826;2023-02-11T22:19:55;3.90;85.10
30250;DHT22;17064;47.974;13.826;2023-02-11T22:24:59;3.90;86.10
30250;DHT22;17064;47.974;13.826;2023-02-11T22:30:01;3.80;86.80
30250;DHT22;17064;47.974;13.826;2023-02-11T22:35:02;3.90;87.40
30250;DHT22;17064;47.974;13.826;2023-02-11T22:40:03;3.90;87.50
30250;DHT22;17064;47.974;13.826;2023-02-11T22:45:04;3.90;87.70
30250;DHT22;17064;47.974;13.826;2023-02-11T22:50:05;4.00;88.20
30250;DHT22;17064;47.974;13.826;2023-02-11T22:55:06;4.00;88.80
30250;DHT22;17064;47.974;13.826;2023-02-11T23:00:08;4.00;88.90
30250;DHT22;17064;47.974;13.826;2023-02-11T23:05:11;4.00;89.70
30250;DHT22;17064;47.974;13.826;2023-02-11T23:10:11;4.00;90.00
30250;DHT22;17064;47.974;13.826;2023-02-11T23:15:12;4.00;90.40
30250;DHT22;17064;47.974;13.826;2023-02-11T23:20:13;4.00;91.00
30250;DHT22;17064;47.974;13.826;2023-02-11T23:25:14;4.00;91.00
30250;DHT22;17064;47.974;13.826;2023-02-11T23:30:15;4.00;91.40
30250;DHT22;17064;47.974;13.826;2023-02-11T23:35:16;4.00;92.70
30250;DHT22;17064;47.974;13.826;2023-02-11T23:40:22;3.90;93.10
30250;DHT22;17064;47.974;13.826;2023-02-11T23:45:23;4.00;93.70
30250;DHT22;17064;47.974;13.826;2023-02-11T23:50:23;4.00;94.00
30250;DHT22;17064;47.974;13.826;2023-02-11T23:55:24;3.90;94.70
